createdAt,value
2023-02-13T00:01:50.556Z,12.90
2023-02-13T00:04:19.774Z,13.20
2023-02-13T00:06:48.978Z,13.07
2023-02-13T00:09:19.604Z,12.63
2023-02-13T00:11:48.729Z,12.80
2023-02-13T00:14:17.861Z,12.23
2023-02-13T00:16:46.892Z,12.27
2023-02-13T00:19:15.892Z,11.88
2023-02-13T00:21:44.865Z,11.80
2023-02-13T00:24:13.913Z,12.38
2023-02-13T00:26:44.435Z,12.15
2023-02-13T00:29:17.659Z,12.38
2023-02-13T00:31:46.725Z,11.18
2023-02-13T00:34:17.264Z,11.90
2023-02-13T00:36:47.374Z,11.65
2023-02-13T00:39:16.439Z,12.55
2023-02-13T00:41:49.502Z,12.02
2023-02-13T00:44:18.498Z,11.63
2023-02-13T00:46:47.593Z,12.02
2023-02-13T00:49:16.656Z,11.75
2023-02-13T00:51:45.786Z,12.48
2023-02-13T00:54:14.869Z,12.25
2023-02-13T00:56:47.756Z,12.32
2023-02-13T00:59:17.722Z,11.43
2023-02-13T01:01:47.004Z,12.15
2023-02-13T01:04:16.846Z,12.45
2023-02-13T01:06:45.964Z,12.88
2023-02-13T01:09:15.007Z,12.77
2023-02-13T01:11:46.134Z,12.77
2023-02-13T01:14:16.566Z,13.73
2023-02-13T01:16:45.651Z,14.37
2023-02-13T01:19:14.696Z,14.07
2023-02-13T01:21:45.229Z,13.38
2023-02-13T01:24:14.657Z,13.80
2023-02-13T01:26:44.579Z,13.57
2023-02-13T01:29:16.752Z,13.35
2023-02-13T01:31:45.931Z,14.05
2023-02-13T01:34:15.067Z,13.32
2023-02-13T01:36:44.070Z,14.55
2023-02-13T01:39:13.973Z,13.75
2023-02-13T01:41:43.032Z,14.20
2023-02-13T01:44:48.110Z,13.93
2023-02-13T01:47:22.149Z,13.48
2023-02-13T01:49:57.022Z,13.90
2023-02-13T01:52:26.064Z,13.35
2023-02-13T01:54:55.144Z,14.10
2023-02-13T01:57:29.157Z,13.45
2023-02-13T02:00:04.314Z,13.20
2023-02-13T02:02:52.979Z,12.77
2023-02-13T02:05:29.510Z,13.60
2023-02-13T02:08:01.431Z,12.98
2023-02-13T02:10:32.601Z,13.20
2023-02-13T02:13:07.973Z,12.75
2023-02-13T02:15:39.522Z,12.80
2023-02-13T02:18:12.010Z,13.55
2023-02-13T02:21:22.561Z,12.23
2023-02-13T02:24:18.714Z,13.25
2023-02-13T02:27:30.780Z,12.75
2023-02-13T02:30:37.715Z,12.85
2023-02-13T02:33:21.939Z,13.38
2023-02-13T02:36:06.864Z,11.52
2023-02-13T02:38:48.398Z,11.68
2023-02-13T02:41:42.543Z,11.40
2023-02-13T02:44:39.474Z,11.02
2023-02-13T02:47:37.700Z,11.95
2023-02-13T02:50:24.451Z,11.65
2023-02-13T02:53:09.084Z,10.60
2023-02-13T02:55:48.230Z,10.82
2023-02-13T02:58:40.350Z,10.43
2023-02-13T03:01:32.066Z,9.65
2023-02-13T03:04:20.294Z,10.20
2023-02-13T03:06:54.633Z,10.00
2023-02-13T03:09:43.929Z,10.73
2023-02-13T03:12:34.448Z,10.18
2023-02-13T03:15:03.558Z,9.68
2023-02-13T03:17:51.240Z,10.18
2023-02-13T03:20:52.653Z,10.23
2023-02-13T03:23:33.046Z,9.95
2023-02-13T03:26:33.315Z,9.30
2023-02-13T03:29:29.982Z,9.85
2023-02-13T03:32:07.826Z,10.18
2023-02-13T03:34:55.103Z,9.70
2023-02-13T03:37:51.098Z,10.23
2023-02-13T03:40:28.985Z,9.60
2023-02-13T03:43:05.850Z,9.70
2023-02-13T03:45:54.233Z,9.45
2023-02-13T03:48:47.731Z,9.77
2023-02-13T03:51:22.165Z,9.88
2023-02-13T03:53:57.192Z,9.38
2023-02-13T03:56:47.337Z,9.40
2023-02-13T03:59:22.957Z,8.60
2023-02-13T04:02:00.240Z,9.25
2023-02-13T04:04:36.804Z,9.25
2023-02-13T04:07:08.582Z,8.85
2023-02-13T04:09:41.793Z,9.80
2023-02-13T04:12:17.788Z,9.15
2023-02-13T04:14:54.062Z,9.00
2023-02-13T04:17:28.715Z,9.23
2023-02-13T04:19:57.984Z,9.18
2023-02-13T04:22:26.981Z,9.52
2023-02-13T04:24:56.165Z,9.85
2023-02-13T04:27:29.319Z,9.25
2023-02-13T04:29:58.385Z,9.00
2023-02-13T04:32:27.391Z,9.48
2023-02-13T04:34:56.395Z,8.65
2023-02-13T04:37:25.625Z,9.20
2023-02-13T04:39:54.742Z,9.45
2023-02-13T04:42:26.224Z,9.05
2023-02-13T04:44:56.644Z,9.65
2023-02-13T04:47:25.709Z,8.80
2023-02-13T04:49:54.726Z,9.75
2023-02-13T04:52:23.737Z,10.68
2023-02-13T04:54:52.834Z,10.10
2023-02-13T04:57:22.024Z,10.38
2023-02-13T04:59:51.191Z,9.93
2023-02-13T05:02:21.671Z,10.45
2023-02-13T05:04:50.813Z,10.57
2023-02-13T05:07:19.993Z,10.32
2023-02-13T05:09:49.081Z,10.45
2023-02-13T05:12:18.168Z,11.20
2023-02-13T05:14:47.338Z,10.70
2023-02-13T05:17:16.804Z,10.52
2023-02-13T05:19:47.299Z,10.70
2023-02-13T05:22:33.741Z,10.55
2023-02-13T05:25:02.787Z,10.60
2023-02-13T05:27:31.822Z,10.90
2023-02-13T05:30:00.897Z,11.70
2023-02-13T05:32:29.957Z,10.57
2023-02-13T05:35:02.051Z,10.05
2023-02-13T05:37:32.438Z,10.27
2023-02-13T05:40:01.546Z,10.75
2023-02-13T05:42:30.574Z,10.02
2023-02-13T05:44:59.605Z,10.45
2023-02-13T05:47:28.614Z,10.57
2023-02-13T05:49:59.095Z,10.63
2023-02-13T05:52:28.274Z,10.45
2023-02-13T05:54:57.447Z,10.70
2023-02-13T05:57:26.562Z,10.20
2023-02-13T05:59:55.677Z,10.45
2023-02-13T06:02:24.815Z,9.90
2023-02-13T06:04:53.942Z,10.50
2023-02-13T06:07:24.477Z,9.98
2023-02-13T06:09:53.638Z,10.67
2023-02-13T06:12:22.705Z,9.77
2023-02-13T06:14:51.707Z,10.00
2023-02-13T06:17:20.684Z,9.40
2023-02-13T06:19:49.906Z,9.98
2023-02-13T06:22:18.985Z,10.50
2023-02-13T06:24:49.477Z,9.43
2023-02-13T06:27:18.464Z,9.50
2023-02-13T06:29:47.893Z,8.48
2023-02-13T06:32:16.903Z,9.05
2023-02-13T06:34:45.983Z,8.70
2023-02-13T06:37:15.086Z,8.15
2023-02-13T06:39:44.109Z,8.38
2023-02-13T06:42:14.647Z,8.70
2023-02-13T06:44:43.703Z,8.07
2023-02-13T06:47:12.744Z,8.63
2023-02-13T06:49:41.720Z,8.93
2023-02-13T06:52:10.706Z,9.38
2023-02-13T06:54:47.154Z,9.10
2023-02-13T06:57:18.545Z,8.70
2023-02-13T06:59:47.605Z,8.77
2023-02-13T07:02:16.632Z,8.50
2023-02-13T07:04:45.639Z,8.70
2023-02-13T07:07:14.716Z,8.65
2023-02-13T07:09:43.784Z,8.68
2023-02-13T07:12:12.925Z,8.80
2023-02-13T07:14:43.964Z,8.70
2023-02-13T07:17:13.024Z,8.80
2023-02-13T07:19:42.043Z,8.88
2023-02-13T07:22:11.019Z,7.88
2023-02-13T07:24:40.030Z,8.93
2023-02-13T07:27:09.140Z,8.77
2023-02-13T07:29:38.278Z,8.90
2023-02-13T07:32:09.317Z,9.80
2023-02-13T07:34:41.210Z,8.90
2023-02-13T07:37:15.568Z,9.52
2023-02-13T07:39:44.720Z,9.40
2023-02-13T07:42:13.836Z,9.93
2023-02-13T07:44:43.496Z,9.90
2023-02-13T07:47:14.063Z,9.15
2023-02-13T07:49:43.816Z,10.35
2023-02-13T07:52:12.836Z,10.55
2023-02-13T07:54:47.827Z,11.80
2023-02-13T07:57:18.159Z,10.57
2023-02-13T07:59:47.254Z,11.45
2023-02-13T08:02:18.225Z,12.00
2023-02-13T08:04:47.547Z,11.20
2023-02-13T08:07:18.470Z,11.73
2023-02-13T08:10:05.457Z,11.27
2023-02-13T08:12:37.200Z,12.15
2023-02-13T08:15:07.377Z,11.00
2023-02-13T08:17:37.943Z,11.73
2023-02-13T08:20:09.273Z,11.60
2023-02-13T08:25:09.163Z,11.18
2023-02-13T08:27:38.307Z,11.80
2023-02-13T08:30:08.620Z,12.38
2023-02-13T08:32:53.094Z,11.20
2023-02-13T08:35:26.897Z,12.38
2023-02-13T08:37:55.948Z,12.13
2023-02-13T08:40:26.014Z,11.95
2023-02-13T08:43:01.482Z,12.52
2023-02-13T08:45:31.404Z,12.20
2023-02-13T08:48:04.134Z,11.90
2023-02-13T08:50:35.139Z,12.88
2023-02-13T08:53:05.633Z,13.95
2023-02-13T08:55:34.863Z,14.55
2023-02-13T08:58:04.345Z,14.18
2023-02-13T09:00:33.911Z,14.77
2023-02-13T09:03:05.227Z,14.07
2023-02-13T09:08:04.125Z,14.27
2023-02-13T09:10:34.103Z,13.52
2023-02-13T09:13:03.346Z,14.63
2023-02-13T09:15:32.785Z,14.35
2023-02-13T09:18:03.519Z,14.77
2023-02-13T09:20:32.831Z,13.90
2023-02-13T09:23:02.786Z,14.63
2023-02-13T09:25:31.996Z,15.07
2023-02-13T09:28:01.284Z,15.77
2023-02-13T09:30:30.591Z,15.43
2023-02-13T09:32:59.734Z,15.35
2023-02-13T09:35:30.417Z,16.13
2023-02-13T09:38:02.275Z,15.85
2023-02-13T09:40:36.657Z,15.23
2023-02-13T09:43:09.360Z,16.45
2023-02-13T09:45:39.390Z,16.70
2023-02-13T09:48:11.785Z,16.17
2023-02-13T09:50:42.548Z,16.40
2023-02-13T09:53:20.891Z,16.98
2023-02-13T09:55:59.730Z,15.43
2023-02-13T09:58:42.731Z,15.02
2023-02-13T10:01:29.617Z,15.60
2023-02-13T10:04:25.095Z,15.35
2023-02-13T10:07:08.037Z,15.57
2023-02-13T10:09:44.443Z,15.60
2023-02-13T10:12:30.251Z,15.82
2023-02-13T10:15:13.587Z,15.00
2023-02-13T10:17:45.870Z,15.70
2023-02-13T10:20:29.728Z,15.88
2023-02-13T10:23:05.460Z,17.13
2023-02-13T10:25:45.282Z,16.08
2023-02-13T10:28:18.780Z,17.10
2023-02-13T10:30:53.447Z,15.63
2023-02-13T10:33:29.034Z,15.90
2023-02-13T10:36:03.202Z,17.15
2023-02-13T10:38:37.011Z,16.90
2023-02-13T10:41:22.252Z,16.38
2023-02-13T10:44:06.617Z,16.73
2023-02-13T10:46:44.505Z,17.17
2023-02-13T10:49:29.345Z,16.73
2023-02-13T10:52:06.898Z,16.75
2023-02-13T10:55:03.621Z,17.33
2023-02-13T10:57:51.921Z,16.85
2023-02-13T11:00:25.776Z,16.65
2023-02-13T11:02:57.335Z,17.27
2023-02-13T11:05:31.637Z,17.27
2023-02-13T11:08:02.070Z,17.88
2023-02-13T11:10:32.479Z,17.73
2023-02-13T11:13:17.571Z,17.70
2023-02-13T11:16:00.878Z,18.20
2023-02-13T11:18:34.341Z,18.15
2023-02-13T11:21:09.213Z,18.17
2023-02-13T11:23:45.667Z,17.58
2023-02-13T11:26:23.602Z,17.42
2023-02-13T11:28:56.390Z,17.15
2023-02-13T11:31:28.339Z,17.73
2023-02-13T11:33:59.250Z,18.95
2023-02-13T11:36:30.743Z,16.83
2023-02-13T11:39:01.752Z,17.48
2023-02-13T11:41:37.949Z,16.70
2023-02-13T11:44:08.795Z,17.90
2023-02-13T11:46:48.770Z,17.85
2023-02-13T11:49:22.482Z,18.10
2023-02-13T11:51:54.209Z,16.70
2023-02-13T11:54:26.955Z,16.85
2023-02-13T11:57:07.061Z,17.27
2023-02-13T11:59:42.154Z,16.88
2023-02-13T12:02:17.442Z,17.73
2023-02-13T12:04:47.649Z,17.55
2023-02-13T12:07:21.430Z,17.42
2023-02-13T12:09:54.352Z,17.67
2023-02-13T12:12:31.224Z,17.38
2023-02-13T12:15:03.956Z,17.92
2023-02-13T12:17:35.792Z,17.25
2023-02-13T12:20:06.887Z,21.00
2023-02-13T12:22:47.909Z,18.50
2023-02-13T12:25:45.345Z,18.60
2023-02-13T12:28:18.171Z,17.70
2023-02-13T12:31:08.764Z,18.05
2023-02-13T12:34:01.388Z,18.57
2023-02-13T12:36:42.438Z,18.38
2023-02-13T12:39:28.669Z,17.88
2023-02-13T12:42:19.007Z,18.10
2023-02-13T12:45:15.343Z,18.30
2023-02-13T12:47:58.563Z,17.70
2023-02-13T12:50:58.037Z,18.20
2023-02-13T12:54:00.533Z,18.45
2023-02-13T12:56:45.391Z,18.17
2023-02-13T12:59:23.196Z,18.38
2023-02-13T13:02:30.654Z,19.00
2023-02-13T13:05:13.783Z,18.45
2023-02-13T13:07:58.057Z,18.48
2023-02-13T13:10:41.356Z,18.33
2023-02-13T13:13:22.434Z,18.63
2023-02-13T13:16:01.156Z,18.95
2023-02-13T13:18:41.322Z,18.33
2023-02-13T13:21:19.112Z,18.17
2023-02-13T13:23:57.419Z,18.23
2023-02-13T13:26:36.073Z,19.13
2023-02-13T13:29:08.814Z,17.77
2023-02-13T13:31:38.845Z,19.00
2023-02-13T13:34:18.514Z,18.65
2023-02-13T13:36:52.216Z,18.83
2023-02-13T13:39:34.494Z,19.15
2023-02-13T13:42:11.863Z,19.23
2023-02-13T13:45:05.270Z,19.83
2023-02-13T13:47:49.754Z,19.63
2023-02-13T13:50:26.253Z,19.65
2023-02-13T13:53:10.907Z,19.88
2023-02-13T13:56:08.063Z,18.73
2023-02-13T13:58:40.675Z,19.90
2023-02-13T14:01:29.322Z,19.23
2023-02-13T14:04:01.215Z,19.30
2023-02-13T14:07:21.742Z,18.35
2023-02-13T14:09:50.848Z,18.50
2023-02-13T14:12:46.799Z,19.75
2023-02-13T14:15:48.997Z,20.13
2023-02-13T14:18:23.676Z,19.63
2023-02-13T14:20:55.289Z,19.88
2023-02-13T14:23:39.368Z,20.30
2023-02-13T14:26:26.682Z,19.83
2023-02-13T14:29:12.825Z,19.10
2023-02-13T14:31:43.494Z,21.65
2023-02-13T14:34:24.298Z,20.45
2023-02-13T14:37:07.724Z,21.25
2023-02-13T14:39:42.298Z,20.98
2023-02-13T14:42:25.150Z,21.05
2023-02-13T14:44:57.960Z,20.95
2023-02-13T14:47:31.821Z,20.73
2023-02-13T14:50:03.861Z,22.15
2023-02-13T14:52:38.513Z,21.42
2023-02-13T14:55:15.440Z,22.15
2023-02-13T14:57:47.387Z,21.38
2023-02-13T15:00:26.401Z,22.73
2023-02-13T15:02:59.895Z,21.10
2023-02-13T15:05:34.111Z,21.90
2023-02-13T15:08:09.914Z,22.58
2023-02-13T15:10:47.092Z,21.77
2023-02-13T15:13:18.559Z,22.83
2023-02-13T15:18:23.595Z,21.52
2023-02-13T15:20:56.974Z,22.33
2023-02-13T15:23:29.670Z,22.20
2023-02-13T15:26:02.131Z,21.80
2023-02-13T15:28:32.527Z,23.45
2023-02-13T15:31:03.874Z,25.13
2023-02-13T15:33:38.338Z,23.23
2023-02-13T15:36:18.355Z,22.60
2023-02-13T15:38:47.790Z,21.80
2023-02-13T15:41:24.235Z,22.13
2023-02-13T15:43:57.450Z,21.88
2023-02-13T15:46:32.002Z,22.70
2023-02-13T15:49:06.515Z,21.38
2023-02-13T15:51:37.829Z,22.27
2023-02-13T15:54:09.476Z,22.25
2023-02-13T15:57:02.534Z,21.75
2023-02-13T15:59:38.005Z,21.92
2023-02-13T16:02:13.828Z,22.73
2023-02-13T16:04:43.826Z,22.08
2023-02-13T16:07:14.680Z,22.05
2023-02-13T16:09:44.381Z,22.58
2023-02-13T16:12:24.130Z,22.90
2023-02-13T16:14:56.974Z,23.50
2023-02-13T16:17:32.946Z,23.45
2023-02-13T16:20:04.567Z,24.30
2023-02-13T16:22:37.413Z,25.63
2023-02-13T16:25:23.205Z,24.50
2023-02-13T16:27:56.546Z,24.35
2023-02-13T16:30:33.813Z,23.83
2023-02-13T16:33:21.424Z,26.17
2023-02-13T16:35:51.628Z,26.52
2023-02-13T16:38:35.601Z,24.98
2023-02-13T16:41:06.631Z,24.38
2023-02-13T16:43:43.245Z,24.85
2023-02-13T16:46:40.763Z,24.98
2023-02-13T16:49:29.634Z,28.45
2023-02-13T16:52:09.634Z,26.35
2023-02-13T16:54:50.265Z,25.50
2023-02-13T16:57:23.722Z,25.92
2023-02-13T17:00:01.661Z,33.90
2023-02-13T17:02:33.508Z,24.88
2023-02-13T17:05:17.770Z,24.85
2023-02-13T17:07:48.411Z,25.98
2023-02-13T17:10:23.302Z,25.13
2023-02-13T17:12:53.479Z,24.45
2023-02-13T17:15:25.453Z,24.35
2023-02-13T17:17:55.775Z,24.67
2023-02-13T17:20:35.492Z,25.77
2023-02-13T17:23:07.216Z,26.85
2023-02-13T17:25:38.710Z,26.50
2023-02-13T17:28:14.442Z,27.33
2023-02-13T17:30:46.010Z,24.92
2023-02-13T17:33:20.855Z,25.70
2023-02-13T17:35:51.857Z,26.27
2023-02-13T17:38:21.894Z,25.33
2023-02-13T17:40:51.977Z,25.20
2023-02-13T17:43:21.695Z,26.98
2023-02-13T17:45:52.698Z,26.10
2023-02-13T17:48:24.131Z,29.33
2023-02-13T17:50:54.027Z,25.75
2023-02-13T17:53:30.110Z,27.85
2023-02-13T17:55:59.446Z,24.85
2023-02-13T17:58:28.766Z,25.50
2023-02-13T18:00:59.600Z,23.52
2023-02-13T18:03:29.235Z,22.85
2023-02-13T18:05:58.340Z,23.25
2023-02-13T18:08:30.850Z,21.98
2023-02-13T18:11:00.730Z,21.15
2023-02-13T18:13:30.063Z,23.70
2023-02-13T18:16:03.440Z,22.33
2023-02-13T18:18:32.862Z,22.95
2023-02-13T18:21:02.928Z,24.13
2023-02-13T18:23:34.421Z,21.75
2023-02-13T18:26:08.432Z,23.05
2023-02-13T18:28:38.327Z,22.63
2023-02-13T18:31:10.708Z,21.88
2023-02-13T18:33:40.018Z,20.63
2023-02-13T18:36:09.356Z,20.95
2023-02-13T18:38:38.700Z,25.63
2023-02-13T18:41:07.899Z,22.17
2023-02-13T18:43:36.978Z,24.35
2023-02-13T18:46:06.547Z,59.80
2023-02-13T18:48:37.247Z,28.98
2023-02-13T18:51:07.216Z,23.85
2023-02-13T18:53:36.360Z,23.98
2023-02-13T18:56:07.829Z,29.92
2023-02-13T18:58:37.207Z,24.58
2023-02-13T19:01:08.141Z,45.50
2023-02-13T19:03:39.802Z,24.88
2023-02-13T19:06:10.776Z,21.42
2023-02-13T19:08:40.272Z,23.02
2023-02-13T19:11:11.515Z,23.15
2023-02-13T19:13:40.592Z,23.05
2023-02-13T19:16:12.034Z,47.60
2023-02-13T19:18:44.058Z,22.27
2023-02-13T19:21:14.352Z,25.10
2023-02-13T19:23:43.942Z,21.73
2023-02-13T19:26:15.392Z,34.05
2023-02-13T19:28:44.892Z,59.30
2023-02-13T19:31:16.309Z,34.35
2023-02-13T19:33:47.505Z,21.67
2023-02-13T19:36:19.772Z,22.73
2023-02-13T19:38:49.470Z,24.67
2023-02-13T19:41:19.478Z,21.50
2023-02-13T19:43:51.450Z,20.40
2023-02-13T19:46:21.908Z,21.30
2023-02-13T19:48:52.835Z,20.20
2023-02-13T19:51:24.386Z,20.85
2023-02-13T19:53:57.816Z,19.70
2023-02-13T19:56:27.987Z,19.77
2023-02-13T19:58:57.088Z,19.85
2023-02-13T20:01:28.551Z,22.02
2023-02-13T20:03:59.518Z,20.70
2023-02-13T20:06:32.461Z,21.13
2023-02-13T20:09:04.955Z,20.13
2023-02-13T20:11:34.189Z,20.95
2023-02-13T20:14:05.348Z,21.33
2023-02-13T20:16:37.503Z,19.00
2023-02-13T20:19:11.775Z,17.77
2023-02-13T20:21:42.045Z,16.80
2023-02-13T20:24:14.472Z,16.85
2023-02-13T20:26:43.913Z,16.20
2023-02-13T20:29:13.178Z,16.27
2023-02-13T20:31:42.702Z,15.65
2023-02-13T20:34:13.516Z,13.75
2023-02-13T20:36:42.660Z,13.95
2023-02-13T20:39:15.958Z,14.73
2023-02-13T20:41:48.677Z,14.30
2023-02-13T20:44:21.097Z,14.85
2023-02-13T20:46:51.136Z,14.07
2023-02-13T20:49:22.137Z,14.40
2023-02-13T20:51:51.624Z,13.90
2023-02-13T20:54:21.405Z,13.82
2023-02-13T20:56:51.782Z,13.38
2023-02-13T20:59:21.849Z,13.85
2023-02-13T21:01:51.639Z,13.77
2023-02-13T21:04:22.973Z,12.85
2023-02-13T21:06:52.170Z,14.25
2023-02-13T21:09:21.942Z,14.10
2023-02-13T21:11:51.283Z,15.40
2023-02-13T21:14:20.496Z,15.00
2023-02-13T21:16:55.008Z,14.52
2023-02-13T21:19:26.104Z,15.52
2023-02-13T21:22:15.698Z,15.32
2023-02-13T21:24:45.552Z,15.98
2023-02-13T21:27:14.642Z,15.73
2023-02-13T21:29:43.761Z,16.33
2023-02-13T21:32:13.197Z,15.43
2023-02-13T21:34:44.884Z,16.40
2023-02-13T21:37:14.197Z,16.15
2023-02-13T21:39:43.763Z,15.90
2023-02-13T21:42:12.850Z,16.00
2023-02-13T21:44:42.037Z,16.27
2023-02-13T21:47:11.300Z,16.90
2023-02-13T21:49:40.614Z,16.70
2023-02-13T21:52:11.492Z,16.35
2023-02-13T21:54:41.748Z,17.02
2023-02-13T21:57:11.428Z,17.77
2023-02-13T21:59:40.713Z,18.05
2023-02-13T22:02:11.884Z,17.15
2023-02-13T22:04:42.412Z,17.80
2023-02-13T22:07:13.203Z,18.42
2023-02-13T22:09:42.360Z,18.48
2023-02-13T22:12:11.462Z,18.08
2023-02-13T22:14:40.841Z,18.05
2023-02-13T22:17:09.993Z,18.73
2023-02-13T22:19:39.124Z,18.42
2023-02-13T22:22:09.034Z,18.88
2023-02-13T22:24:39.674Z,19.40
2023-02-13T22:27:08.734Z,20.95
2023-02-13T22:29:40.947Z,21.73
2023-02-13T22:32:10.082Z,21.17
2023-02-13T22:34:39.275Z,21.40
2023-02-13T22:37:09.506Z,21.45
2023-02-13T22:39:40.500Z,21.77
2023-02-13T22:42:09.946Z,20.90
2023-02-13T22:44:39.227Z,22.05
2023-02-13T22:47:08.377Z,21.40
2023-02-13T22:49:37.486Z,22.08
2023-02-13T22:52:07.042Z,21.92
2023-02-13T22:54:37.193Z,21.58
2023-02-13T22:57:08.463Z,22.02
2023-02-13T23:04:38.170Z,20.15
2023-02-13T23:07:07.248Z,21.10
2023-02-13T23:09:36.489Z,21.15
2023-02-13T23:12:24.985Z,20.10
2023-02-13T23:14:54.060Z,20.77
2023-02-13T23:17:40.590Z,23.52
2023-02-13T23:20:10.918Z,21.98
2023-02-13T23:22:40.273Z,22.73
2023-02-13T23:25:10.092Z,21.48
2023-02-13T23:27:42.072Z,21.27
2023-02-13T23:30:12.943Z,22.35
2023-02-13T23:32:42.291Z,21.58
2023-02-13T23:35:11.784Z,21.40
2023-02-13T23:37:40.832Z,22.60
2023-02-13T23:40:13.627Z,23.23
2023-02-13T23:42:44.794Z,21.83
2023-02-13T23:45:14.382Z,22.42
2023-02-13T23:47:43.556Z,22.50
2023-02-13T23:50:12.788Z,22.50
2023-02-13T23:52:42.044Z,22.13
2023-02-13T23:55:11.125Z,20.50
2023-02-13T23:57:40.257Z,22.52
